Time;durP1;ratioP1;P1;durP2;ratioP2;P2;SDS_P1;SDS_P2;PMS_P1;PMS_P2;Temp;Humidity;BMP_temperature;BMP_pressure;BME280_temperature;BME280_humidity;BME280_pressure;Samples;Min_cycle;Max_cycle;Signal;HPM_P1;HPM_P2
2022/03/10 00:00:55;;;;;;;18.45;10.75;;;7.60;53.60;;;6.22;45.21;101353.03;4972165;28;20042;-90
2022/03/10 00:03:22;;;;;;;17.27;10.63;;;7.60;53.90;;;6.22;45.65;101351.19;4989824;28;20084;-89
2022/03/10 00:05:49;;;;;;;18.77;10.80;;;7.70;53.70;;;6.24;45.52;101346.53;4993869;28;20143;-90
2022/03/10 00:08:18;;;;;;;24.35;11.25;;;7.60;53.30;;;6.24;45.44;101348.34;5008369;28;20488;-90
2022/03/10 00:10:45;;;;;;;20.83;11.23;;;7.70;53.00;;;6.26;45.29;101349.94;4971731;28;20058;-90
2022/03/10 00:13:12;;;;;;;24.65;11.30;;;7.70;52.80;;;6.28;44.51;101351.63;4989417;28;20117;-89
2022/03/10 00:15:39;;;;;;;21.98;10.93;;;7.70;53.10;;;6.25;45.57;101348.22;4989883;28;20125;-89
2022/03/10 00:18:07;;;;;;;18.05;10.52;;;7.70;53.00;;;6.24;45.20;101354.63;4994060;28;20662;-90
2022/03/10 00:20:34;;;;;;;17.80;11.15;;;7.60;54.10;;;6.23;45.18;101366.41;4991678;28;20046;-90
2022/03/10 00:23:01;;;;;;;20.20;10.43;;;7.60;54.20;;;6.07;44.38;101360.63;4992304;28;20054;-90
2022/03/10 00:25:32;;;;;;;20.48;11.25;;;7.50;54.00;;;5.83;45.69;101366.31;4993825;28;20046;-90
2022/03/10 00:28:00;;;;;;;24.05;13.15;;;7.40;54.50;;;5.71;45.96;101368.22;5002154;28;20089;-90
2022/03/10 00:30:27;;;;;;;21.77;12.38;;;7.30;55.70;;;5.58;46.98;101373.84;4975579;28;20116;-90
2022/03/10 00:32:54;;;;;;;22.25;12.18;;;7.30;56.10;;;5.55;46.77;101375.94;4976210;28;20042;-89
2022/03/10 00:35:24;;;;;;;19.52;11.85;;;7.20;56.70;;;5.42;46.83;101376.97;4993254;28;20061;-91
2022/03/10 00:37:53;;;;;;;18.92;11.77;;;7.10;57.20;;;5.38;47.58;101388.16;5001202;28;20118;-90
2022/03/10 00:40:20;;;;;;;19.83;11.60;;;7.10;57.40;;;5.33;47.58;101390.38;4995938;28;20066;-90
2022/03/10 00:42:49;;;;;;;20.50;11.63;;;7.00;58.10;;;5.31;47.93;101395.91;4993357;28;20532;-90
2022/03/10 00:45:19;;;;;;;19.95;10.75;;;7.00;58.50;;;5.24;48.28;101389.31;4993356;28;20038;-90
2022/03/10 00:47:47;;;;;;;17.88;10.65;;;7.00;59.00;;;5.21;48.64;101394.97;4993362;28;20047;-90
2022/03/10 00:50:15;;;;;;;19.88;11.60;;;6.90;59.10;;;5.21;48.54;101389.56;4992748;28;20101;-90
2022/03/10 00:52:43;;;;;;;23.30;11.30;;;6.90;58.90;;;5.22;49.02;101385.91;4993081;28;20048;-91
2022/03/10 00:55:13;;;;;;;21.15;11.68;;;6.80;59.00;;;5.26;49.12;101388.19;4993200;28;20134;-89
2022/03/10 00:57:40;;;;;;;22.83;12.10;;;6.80;59.30;;;5.34;48.91;101386.72;4992940;28;20117;-90
2022/03/10 01:00:11;;;;;;;24.10;12.63;;;6.80;59.40;;;5.37;48.98;101384.63;4991536;28;20495;-91
2022/03/10 01:02:38;;;;;;;24.27;13.00;;;6.80;59.40;;;5.43;48.94;101377.84;5012412;28;20066;-90
2022/03/10 01:05:07;;;;;;;21.67;12.30;;;6.90;59.20;;;5.48;49.00;101381.88;4972451;28;20421;-91
2022/03/10 01:07:35;;;;;;;23.17;12.43;;;6.90;59.30;;;5.48;48.83;101379.16;4983955;28;20052;-89
2022/03/10 01:10:05;;;;;;;23.13;13.38;;;6.90;59.30;;;5.48;48.97;101386.38;4992532;28;20053;-90
2022/03/10 01:12:34;;;;;;;27.90;13.20;;;6.80;59.80;;;5.46;49.13;101382.97;4995346;28;20041;-89
2022/03/10 01:15:03;;;;;;;20.50;12.68;;;6.90;60.30;;;5.43;49.16;101378.69;4992746;28;20049;-89
2022/03/10 01:17:32;;;;;;;21.30;12.38;;;6.80;59.80;;;5.43;49.42;101376.00;4992457;28;20455;-89
2022/03/10 01:19:59;;;;;;;23.20;13.00;;;6.80;59.90;;;5.44;49.57;101374.13;4992584;28;20065;-90
2022/03/10 01:22:26;;;;;;;23.00;12.75;;;6.80;60.20;;;5.46;49.61;101375.75;4992724;28;20035;-90
2022/03/10 01:24:54;;;;;;;20.70;12.45;;;6.80;60.10;;;5.45;49.35;101370.47;4996195;28;20046;-90
2022/03/10 01:27:21;;;;;;;20.73;12.50;;;6.80;60.00;;;5.46;49.86;101375.75;4992785;28;20042;-89
2022/03/10 01:29:48;;;;;;;25.60;13.50;;;6.80;60.30;;;5.48;49.84;101379.16;4992103;28;20081;-89
2022/03/10 01:32:15;;;;;;;22.17;12.38;;;6.80;60.20;;;5.48;49.78;101371.06;4991510;28;20492;-89
2022/03/10 01:34:44;;;;;;;23.83;12.65;;;6.80;60.40;;;5.51;49.73;101371.78;4976905;28;20046;-89
2022/03/10 01:37:11;;;;;;;24.50;13.50;;;6.90;59.90;;;5.54;49.89;101363.41;4992469;28;20042;-90
2022/03/10 01:39:38;;;;;;;20.17;12.85;;;6.90;60.00;;;5.52;49.46;101363.56;4992359;28;20052;-91
2022/03/10 01:42:06;;;;;;;21.88;13.00;;;6.90;60.00;;;5.51;49.48;101364.53;4994186;28;20471;-89
2022/03/10 01:44:34;;;;;;;23.05;12.90;;;6.90;60.10;;;5.51;49.84;101369.09;5011958;28;20107;-89
2022/03/10 01:47:02;;;;;;;21.88;12.75;;;6.90;60.40;;;5.51;50.22;101366.38;4995399;28;20130;-90
2022/03/10 01:49:30;;;;;;;28.33;13.10;;;6.90;61.00;;;5.51;50.07;101361.00;4992164;28;20045;-89
2022/03/10 01:51:59;;;;;;;20.60;12.18;;;7.00;60.50;;;5.49;49.98;101367.38;4992192;28;20041;-89
2022/03/10 01:54:26;;;;;;;22.70;12.52;;;6.90;60.40;;;5.46;49.90;101359.53;4992012;28;20555;-89
2022/03/10 01:56:54;;;;;;;22.95;13.48;;;6.90;60.50;;;5.48;50.07;101364.78;4992057;28;20043;-90
2022/03/10 01:59:22;;;;;;;22.63;12.43;;;6.90;60.80;;;5.41;50.00;101356.38;4992018;28;20066;-90
2022/03/10 02:01:49;;;;;;;21.92;12.50;;;6.80;61.00;;;5.38;49.92;101355.75;4991649;28;20042;-90
2022/03/10 02:04:17;;;;;;;20.30;12.30;;;6.80;61.00;;;5.26;50.22;101354.97;4978462;28;20101;-91
2022/03/10 02:06:45;;;;;;;23.52;12.85;;;6.80;60.90;;;5.13;50.94;101367.78;5001514;28;20125;-90
2022/03/10 02:11:59;;;;;;;24.48;13.27;;;6.60;61.30;;;5.00;50.68;101376.88;5006234;28;20354;-90
2022/03/10 02:17:23;;;;;;;27.10;13.30;;;6.60;61.60;;;5.00;51.23;101378.72;4994935;28;20096;-91
2022/03/10 02:19:52;;;;;;;22.02;12.48;;;6.50;62.00;;;4.82;51.50;101378.41;4986282;28;20061;-90
2022/03/10 02:22:23;;;;;;;28.05;13.50;;;6.50;62.40;;;4.64;52.38;101368.13;4990161;28;20054;-89
2022/03/10 02:24:53;;;;;;;21.45;13.23;;;6.50;62.40;;;4.54;52.92;101374.41;4991415;28;20046;-90
2022/03/10 02:27:23;;;;;;;22.90;12.98;;;6.50;62.60;;;4.37;54.00;101370.38;4991326;28;20046;-90
2022/03/10 02:29:52;;;;;;;24.92;13.60;;;6.40;62.60;;;4.22;54.76;101369.75;4991489;28;20066;-90
2022/03/10 02:32:21;;;;;;;21.88;12.93;;;6.40;62.70;;;4.16;53.91;101363.03;4992121;28;20575;-90
2022/03/10 02:34:49;;;;;;;24.73;12.60;;;6.30;62.70;;;4.01;55.37;101367.78;4992763;28;20617;-90
2022/03/10 02:37:17;;;;;;;22.98;13.25;;;6.30;62.80;;;3.84;55.37;101357.47;4991016;28;20089;-89
2022/03/10 02:39:47;;;;;;;25.00;12.55;;;6.20;63.00;;;3.69;55.89;101356.84;4991110;28;20038;-90
2022/03/10 02:42:14;;;;;;;22.95;13.52;;;6.10;63.20;;;3.61;56.28;101359.28;4990786;28;20046;-89
2022/03/10 02:44:43;;;;;;;22.85;13.75;;;6.00;63.50;;;3.52;57.04;101356.34;4990791;28;20048;-90
2022/03/10 02:47:11;;;;;;;24.27;13.98;;;6.00;63.70;;;3.48;57.21;101352.16;5014454;28;20524;-90
2022/03/10 02:49:40;;;;;;;24.40;13.15;;;5.90;64.20;;;3.41;57.83;101348.22;4988802;28;20045;-91
2022/03/10 02:52:08;;;;;;;25.73;13.55;;;5.90;64.40;;;3.27;58.25;101345.72;4990305;28;20038;-90
2022/03/10 02:54:35;;;;;;;21.77;13.15;;;6.00;64.80;;;3.20;57.88;101341.78;4990848;28;20077;-90
2022/03/10 02:57:05;;;;;;;26.15;14.27;;;5.70;64.90;;;3.08;58.38;101347.09;4990728;28;20046;-90
2022/03/10 02:59:32;;;;;;;24.27;13.02;;;5.60;65.20;;;3.02;59.00;101344.88;4990241;28;20038;-89
2022/03/10 03:01:59;;;;;;;26.02;13.45;;;5.50;65.40;;;2.93;59.21;101338.38;4990414;28;20046;-90
2022/03/10 03:04:27;;;;;;;23.35;13.30;;;5.50;65.80;;;2.90;59.76;101343.13;4993778;28;20042;-89
2022/03/10 03:06:54;;;;;;;23.70;14.27;;;5.40;66.00;;;2.94;59.47;101336.53;4990051;28;20064;-90
2022/03/10 03:09:22;;;;;;;25.27;14.35;;;5.40;66.50;;;2.97;59.48;101344.38;4990460;28;20046;-89
2022/03/10 03:11:49;;;;;;;22.23;13.23;;;5.30;66.80;;;2.91;59.59;101350.19;4970604;28;20051;-90
2022/03/10 03:14:22;;;;;;;23.65;13.52;;;5.30;66.90;;;2.72;60.64;101353.41;4982336;28;20130;-90
2022/03/10 03:16:50;;;;;;;24.00;13.15;;;5.20;66.70;;;2.61;60.81;101354.19;4991657;28;20050;-89
2022/03/10 03:19:17;;;;;;;22.73;13.90;;;5.20;67.00;;;2.55;60.90;101357.31;4990500;28;20520;-90
2022/03/10 03:21:44;;;;;;;26.33;14.07;;;5.10;67.40;;;2.45;61.61;101349.06;4989868;28;20090;-90
2022/03/10 03:24:12;;;;;;;26.75;14.30;;;5.10;67.40;;;2.47;61.62;101363.25;4990069;28;20058;-90
2022/03/10 03:26:39;;;;;;;26.70;13.40;;;5.00;67.40;;;2.43;61.78;101366.28;4990350;28;20552;-89
2022/03/10 03:29:06;;;;;;;24.38;13.45;;;5.00;67.70;;;2.45;62.52;101372.41;4972457;28;20065;-89
2022/03/10 03:31:35;;;;;;;27.90;13.75;;;4.90;67.90;;;2.44;62.36;101368.00;4989691;28;20055;-89
2022/03/10 03:34:02;;;;;;;26.00;13.43;;;4.90;67.90;;;2.43;62.08;101374.34;4972698;28;20566;-90
2022/03/10 03:36:29;;;;;;;24.67;14.25;;;4.90;68.10;;;2.36;62.83;101371.22;4989989;28;20077;-90
2022/03/10 03:38:57;;;;;;;24.77;14.27;;;4.90;68.40;;;2.29;63.74;101370.81;4990059;28;20496;-91
2022/03/10 03:41:25;;;;;;;25.35;13.55;;;4.90;68.70;;;2.23;64.17;101379.31;4971858;28;20054;-88
2022/03/10 03:43:52;;;;;;;26.08;14.38;;;4.80;68.80;;;2.08;63.39;101377.72;4989670;28;20117;-89
2022/03/10 03:46:19;;;;;;;26.55;13.75;;;4.80;68.70;;;2.00;63.93;101385.44;4988626;28;20149;-89
2022/03/10 03:48:48;;;;;;;27.08;14.80;;;4.70;68.80;;;1.82;64.20;101388.44;4989733;28;20048;-90
2022/03/10 03:51:15;;;;;;;24.17;14.38;;;4.60;69.10;;;1.72;65.05;101387.38;4989200;28;20050;-89
2022/03/10 03:53:43;;;;;;;28.90;14.27;;;4.60;69.30;;;1.71;65.22;101391.00;4991680;28;20078;-89
2022/03/10 03:56:10;;;;;;;28.02;14.38;;;4.50;69.50;;;1.72;65.89;101392.75;4989128;28;20061;-89
2022/03/10 03:58:37;;;;;;;24.25;13.55;;;4.50;69.90;;;1.79;65.96;101399.41;4989545;28;20070;-89
2022/03/10 04:01:04;;;;;;;25.75;14.40;;;4.50;70.20;;;1.81;66.18;101400.16;4989617;28;20133;-90
2022/03/10 04:03:32;;;;;;;25.95;14.30;;;4.50;70.20;;;1.84;65.83;101397.25;4989414;28;20560;-90
2022/03/10 04:06:00;;;;;;;26.08;14.15;;;4.50;70.40;;;1.90;65.37;101395.97;4989457;28;20050;-89
2022/03/10 04:08:28;;;;;;;26.13;14.68;;;4.50;70.50;;;1.91;65.74;101393.19;4972220;28;20496;-88
2022/03/10 04:10:55;;;;;;;25.77;14.05;;;4.40;70.50;;;1.84;66.00;101397.25;4970026;28;20185;-90
2022/03/10 04:13:22;;;;;;;28.15;14.18;;;4.40;70.50;;;1.81;66.43;101397.47;4962771;28;20516;-89
2022/03/10 04:15:50;;;;;;;28.88;15.57;;;4.40;70.80;;;1.82;66.39;101388.44;4989349;28;20495;-90
2022/03/10 04:18:17;;;;;;;28.23;14.70;;;4.40;70.80;;;1.76;66.71;101396.94;4971701;28;20413;-89
2022/03/10 04:20:45;;;;;;;25.00;14.02;;;4.30;70.90;;;1.72;66.82;101387.38;4987641;28;20053;-89
2022/03/10 04:23:15;;;;;;;28.52;14.68;;;4.30;71.20;;;1.64;66.85;101389.69;4989243;28;20404;-90
2022/03/10 04:25:42;;;;;;;25.65;13.65;;;4.30;71.20;;;1.58;67.65;101387.44;4994967;28;20050;-89
2022/03/10 04:28:10;;;;;;;27.27;15.05;;;4.30;71.30;;;1.60;67.95;101393.56;4994900;28;20614;-90
2022/03/10 04:30:38;;;;;;;27.75;14.77;;;4.20;71.40;;;1.56;67.74;101392.91;4992647;28;20137;-89
2022/03/10 04:33:06;;;;;;;30.13;14.90;;;4.20;71.30;;;1.60;67.64;101398.94;5003217;28;20042;-90
2022/03/10 04:35:34;;;;;;;27.50;14.75;;;4.20;71.60;;;1.44;67.53;101397.28;4997105;28;20113;-89
2022/03/10 04:38:01;;;;;;;24.67;14.45;;;4.10;71.60;;;1.39;67.81;101396.78;4989262;28;20054;-89
2022/03/10 04:40:31;;;;;;;27.33;14.48;;;4.10;71.70;;;1.36;68.24;101391.59;4989207;28;20562;-90
2022/03/10 04:42:59;;;;;;;28.33;14.95;;;4.10;71.70;;;1.35;68.35;101403.28;4990607;28;20467;-88
2022/03/10 04:45:26;;;;;;;26.90;14.02;;;4.10;71.80;;;1.42;68.16;101398.38;5056594;23;20151;-82
2022/03/10 04:47:53;;;;;;;27.30;14.02;;;4.10;71.90;;;1.42;68.00;101404.59;5042041;28;20048;-82
2022/03/10 04:50:21;;;;;;;26.58;14.75;;;4.00;72.10;;;1.42;68.26;101401.91;5048500;28;20151;-81
2022/03/10 04:52:49;;;;;;;29.25;15.05;;;4.00;72.10;;;1.43;68.69;101398.28;5048507;28;20041;-81
2022/03/10 04:55:16;;;;;;;27.83;14.43;;;4.00;72.40;;;1.40;68.79;101398.47;5055447;28;20103;-81
2022/03/10 04:57:45;;;;;;;26.70;14.55;;;4.00;72.60;;;1.37;69.31;101390.63;5064994;28;20552;-81
2022/03/10 05:00:16;;;;;;;28.10;14.90;;;4.00;72.80;;;1.34;69.10;101390.84;5061318;28;20128;-81
2022/03/10 05:02:43;;;;;;;27.95;15.07;;;3.90;72.90;;;1.29;69.70;101395.66;5048799;28;20033;-81
2022/03/10 05:05:12;;;;;;;27.58;14.75;;;3.90;73.00;;;1.28;69.56;101400.16;5051432;28;20053;-81
2022/03/10 05:07:40;;;;;;;26.17;14.18;;;3.90;73.20;;;1.16;69.90;101385.75;5057124;28;20044;-81
2022/03/10 05:10:09;;;;;;;29.95;14.23;;;3.80;73.20;;;1.15;69.91;101394.75;5065137;28;20048;-81
2022/03/10 05:12:47;;;;;;;27.10;14.75;;;3.80;73.20;;;1.07;70.45;101386.38;5052445;28;20036;-89
2022/03/10 05:15:17;;;;;;;28.60;14.85;;;3.80;73.30;;;1.06;70.58;101392.66;5040601;28;20064;-84
2022/03/10 05:17:45;;;;;;;27.58;15.18;;;3.80;73.60;;;0.96;70.47;101388.91;5049877;28;20076;-85
2022/03/10 05:20:13;;;;;;;26.55;15.32;;;3.70;73.60;;;0.92;70.59;101393.59;5070737;28;20041;-84
2022/03/10 05:22:45;;;;;;;25.70;14.25;;;3.70;73.70;;;1.01;71.04;101392.13;5052353;28;20068;-84
2022/03/10 05:25:14;;;;;;;27.88;14.93;;;3.70;73.80;;;0.94;71.11;101396.19;5062004;28;20129;-85
2022/03/10 05:27:42;;;;;;;28.95;14.30;;;3.80;73.90;;;0.84;71.33;101406.63;5071459;28;20037;-82
2022/03/10 05:30:12;;;;;;;27.60;14.93;;;3.60;73.90;;;0.84;71.90;101403.97;5051853;28;20128;-83
2022/03/10 05:32:40;;;;;;;23.65;14.50;;;3.50;74.30;;;0.78;71.91;101402.53;5052355;28;20029;-82
2022/03/10 05:35:10;;;;;;;28.10;15.02;;;3.60;74.40;;;0.82;72.19;101399.63;5051377;28;20049;-84
2022/03/10 05:37:40;;;;;;;28.73;15.18;;;3.60;74.60;;;0.87;72.71;101408.25;5069951;28;20086;-83
2022/03/10 05:40:10;;;;;;;25.23;14.10;;;3.50;74.80;;;0.88;72.90;101396.59;5052189;28;20041;-84
2022/03/10 05:42:39;;;;;;;26.08;14.35;;;3.60;75.00;;;0.86;73.08;101401.19;5054330;28;20483;-86
2022/03/10 05:45:08;;;;;;;29.50;14.65;;;3.50;75.30;;;0.88;72.79;101407.31;5056609;28;20144;-84
2022/03/10 05:47:38;;;;;;;26.88;14.30;;;3.50;75.50;;;0.82;73.38;101405.88;5054331;28;20052;-84
2022/03/10 05:50:07;;;;;;;25.05;14.57;;;3.50;75.40;;;0.76;73.54;101409.81;5051433;28;20076;-84
2022/03/10 05:52:34;;;;;;;29.73;15.18;;;3.50;75.60;;;0.76;73.77;101408.94;5060407;28;20072;-84
2022/03/10 05:55:01;;;;;;;28.17;14.88;;;3.40;75.60;;;0.78;73.72;101413.25;5051898;28;20111;-83
2022/03/10 05:57:29;;;;;;;27.73;14.95;;;3.40;75.80;;;0.80;73.93;101412.28;5061070;28;20590;-84
2022/03/10 05:59:59;;;;;;;29.02;14.45;;;3.40;75.90;;;0.83;73.78;101409.41;5071049;28;20064;-88
2022/03/10 06:02:26;;;;;;;26.58;14.38;;;3.40;76.00;;;0.86;73.68;101414.59;5035958;28;20075;-88
2022/03/10 06:05:00;;;;;;;26.75;14.07;;;3.40;76.10;;;0.89;73.39;101422.41;5052270;28;20128;-87
2022/03/10 06:07:27;;;;;;;29.25;14.70;;;3.40;76.10;;;0.91;73.50;101417.81;5050689;28;20053;-86
2022/03/10 06:09:55;;;;;;;27.92;14.68;;;3.40;76.00;;;0.77;73.33;101427.59;5069815;28;20205;-86
2022/03/10 06:12:23;;;;;;;27.10;13.90;;;3.40;75.90;;;0.78;73.33;101432.00;5065192;28;20625;-86
2022/03/10 06:14:53;;;;;;;26.10;14.20;;;3.40;76.00;;;0.75;74.08;101432.19;5050526;28;20047;-87
2022/03/10 06:17:21;;;;;;;26.35;14.18;;;3.40;76.20;;;0.82;74.12;101434.47;5051567;28;20076;-86
2022/03/10 06:19:48;;;;;;;27.17;14.98;;;3.40;76.30;;;0.84;74.76;101440.59;5050746;28;20056;-89
2022/03/10 06:22:19;;;;;;;30.02;14.07;;;3.40;76.40;;;0.91;74.07;101440.09;5051811;28;20086;-88
2022/03/10 06:24:47;;;;;;;31.38;14.00;;;3.40;76.50;;;0.98;73.81;101441.44;5071172;28;20079;-89
2022/03/10 06:27:14;;;;;;;35.58;15.23;;;3.50;76.70;;;1.06;73.48;101440.91;5067880;28;20041;-88
2022/03/10 06:29:42;;;;;;;27.98;13.68;;;3.50;76.60;;;1.04;73.63;101440.16;5053936;28;20043;-85
2022/03/10 06:32:12;;;;;;;25.58;13.80;;;3.50;76.60;;;1.07;73.66;101434.63;5050579;28;20037;-86
2022/03/10 06:34:39;;;;;;;29.42;12.98;;;3.50;76.60;;;1.21;73.08;101440.88;5051617;28;20051;-86
2022/03/10 06:37:07;;;;;;;28.52;13.98;;;3.50;76.50;;;1.22;72.80;101434.56;5050804;28;20036;-86
2022/03/10 06:39:36;;;;;;;29.33;14.77;;;3.60;76.50;;;1.25;73.27;101442.41;5055750;28;20498;-86
2022/03/10 06:42:05;;;;;;;24.38;12.88;;;3.60;76.60;;;1.27;72.61;101440.47;5057344;28;20106;-86
2022/03/10 06:44:33;;;;;;;22.83;13.45;;;3.60;76.40;;;1.30;72.98;101443.81;5059378;28;20048;-86
2022/03/10 06:47:00;;;;;;;26.80;14.52;;;3.70;76.90;;;1.36;73.79;101453.28;5064756;28;20114;-87
2022/03/10 06:49:27;;;;;;;27.25;14.75;;;3.70;76.90;;;1.44;73.70;101448.25;5050549;28;20118;-87
2022/03/10 06:51:55;;;;;;;25.88;14.60;;;3.70;77.00;;;1.59;73.05;101451.75;5064947;28;20517;-86
2022/03/10 06:54:22;;;;;;;26.67;14.65;;;3.70;77.30;;;1.79;72.46;101442.34;5055351;28;20644;-86
2022/03/10 06:56:51;;;;;;;29.58;15.65;;;3.80;77.10;;;1.82;73.06;101452.84;5069190;28;20140;-87
2022/03/10 06:59:18;;;;;;;25.77;14.65;;;3.80;77.20;;;1.83;72.35;101451.91;5055137;28;20128;-86
2022/03/10 07:01:46;;;;;;;37.05;14.52;;;3.90;77.10;;;1.94;72.76;101449.34;5054959;28;20097;-86
2022/03/10 07:04:13;;;;;;;31.05;14.57;;;3.90;77.40;;;2.04;73.17;101446.88;5052358;28;20466;-86
2022/03/10 07:06:41;;;;;;;27.98;14.23;;;4.00;77.70;;;2.13;72.72;101450.72;5065744;28;20048;-86
2022/03/10 07:09:08;;;;;;;23.00;13.73;;;4.00;77.60;;;2.22;72.75;101447.41;5070061;28;20048;-86
2022/03/10 07:11:35;;;;;;;26.83;13.98;;;4.10;77.70;;;2.29;71.61;101454.06;5055196;28;20071;-86
2022/03/10 07:14:04;;;;;;;32.92;14.68;;;4.10;77.50;;;2.27;72.05;101461.38;5049854;28;20041;-86
2022/03/10 07:16:31;;;;;;;25.00;14.95;;;4.10;77.50;;;2.28;72.44;101470.28;5050292;28;20045;-86
2022/03/10 07:18:59;;;;;;;29.50;14.98;;;4.10;77.40;;;2.33;72.32;101473.53;5050029;28;20043;-85
2022/03/10 07:21:26;;;;;;;25.58;14.75;;;4.20;77.50;;;2.48;72.53;101477.81;5070883;28;20561;-86
2022/03/10 07:23:53;;;;;;;24.77;14.38;;;4.30;77.80;;;2.70;71.62;101466.41;5069004;28;20044;-85
2022/03/10 07:26:21;;;;;;;26.45;15.25;;;4.30;77.80;;;2.90;70.04;101464.97;5049944;28;20041;-87
2022/03/10 07:28:49;;;;;;;29.10;14.52;;;4.40;78.00;;;3.05;69.65;101460.28;5050065;28;20047;-82
2022/03/10 07:31:18;;;;;;;26.23;13.80;;;4.50;77.70;;;3.21;69.79;101460.00;5048628;28;20040;-85
2022/03/10 07:33:45;;;;;;;27.20;15.32;;;4.60;77.40;;;3.39;69.01;101455.13;5049614;28;20142;-85
2022/03/10 07:36:12;;;;;;;27.77;14.73;;;4.80;76.80;;;3.61;67.44;101457.03;5068256;28;20148;-84
2022/03/10 07:38:40;;;;;;;24.30;13.38;;;4.90;75.90;;;3.76;66.79;101449.63;5068513;28;20048;-84
2022/03/10 07:41:07;;;;;;;26.67;14.60;;;5.00;74.70;;;3.88;66.19;101459.47;5063796;28;20806;-85
2022/03/10 07:43:34;;;;;;;24.73;13.98;;;5.20;73.90;;;4.01;64.74;101453.97;5069444;28;20466;-87
2022/03/10 07:46:04;;;;;;;25.80;14.55;;;5.30;73.30;;;4.11;64.79;101460.38;5069621;28;20044;-85
2022/03/10 07:48:33;;;;;;;30.10;15.65;;;5.40;73.10;;;4.20;64.91;101458.78;5050796;28;20080;-85
2022/03/10 07:51:01;;;;;;;30.80;15.07;;;5.50;72.50;;;4.29;64.24;101460.75;5048981;28;20402;-85
2022/03/10 07:53:29;;;;;;;30.55;14.07;;;5.60;71.80;;;4.46;63.51;101464.81;5053299;28;20114;-85
2022/03/10 07:55:56;;;;;;;26.58;15.07;;;5.70;71.00;;;4.64;61.82;101457.09;5049697;28;20103;-87
2022/03/10 07:58:25;;;;;;;26.48;14.43;;;5.80;70.70;;;4.86;61.90;101452.69;5059842;28;20064;-86
2022/03/10 08:00:54;;;;;;;24.70;14.23;;;5.90;70.30;;;5.07;61.29;101452.78;5053956;28;20760;-87
2022/03/10 08:03:22;;;;;;;26.85;13.93;;;6.10;69.70;;;5.25;60.74;101450.41;5060215;28;20040;-88
2022/03/10 08:05:50;;;;;;;27.02;14.18;;;6.20;69.50;;;5.40;61.34;101459.91;5069107;28;20131;-87
2022/03/10 08:08:18;;;;;;;29.02;14.27;;;6.30;68.80;;;5.57;59.61;101453.09;5058482;28;20049;-83
2022/03/10 08:10:45;;;;;;;24.20;12.95;;;6.50;68.50;;;5.77;59.27;101462.25;5048784;28;20048;-84
2022/03/10 08:13:13;;;;;;;33.28;14.85;;;6.70;68.30;;;5.90;58.92;101450.38;5056072;28;20047;-88
2022/03/10 08:15:43;;;;;;;27.35;14.57;;;6.80;67.20;;;6.00;58.65;101451.34;5049565;28;20080;-88
2022/03/10 08:18:11;;;;;;;26.65;13.80;;;7.00;67.10;;;6.07;59.39;101441.72;5052212;28;20764;-88
2022/03/10 08:20:39;;;;;;;25.13;14.27;;;7.10;67.00;;;6.18;58.81;101438.94;5048865;28;20045;-89
2022/03/10 08:23:09;;;;;;;24.30;13.30;;;7.30;66.40;;;6.33;57.47;101436.75;5057468;28;20041;-89
2022/03/10 08:25:37;;;;;;;25.60;13.40;;;7.40;65.20;;;6.51;57.86;101436.13;5059174;28;20045;-88
2022/03/10 08:28:05;;;;;;;24.60;13.65;;;7.60;65.00;;;6.66;55.38;101432.06;5049297;28;20037;-85
2022/03/10 08:30:33;;;;;;;27.35;14.02;;;7.80;62.00;;;6.77;56.60;101420.28;5049770;28;20041;-85
2022/03/10 08:33:00;;;;;;;25.13;13.13;;;8.00;61.10;;;6.92;53.39;101424.31;5043015;28;20124;-85
2022/03/10 08:35:28;;;;;;;27.90;14.27;;;8.20;60.40;;;7.08;55.30;101415.66;5046629;28;20037;-86
2022/03/10 08:37:55;;;;;;;26.00;13.32;;;8.30;60.90;;;7.22;54.14;101417.13;5059241;28;20050;-86
2022/03/10 08:40:24;;;;;;;26.77;13.10;;;8.60;60.50;;;7.34;54.00;101418.69;5045226;28;20079;-86
2022/03/10 08:42:53;;;;;;;27.05;14.38;;;8.70;60.30;;;7.44;52.36;101414.16;5050515;28;20044;-85
2022/03/10 08:45:22;;;;;;;27.13;14.10;;;8.80;59.60;;;7.58;52.44;101407.44;5052067;28;20040;-85
2022/03/10 08:47:49;;;;;;;30.42;14.98;;;8.90;58.90;;;7.68;51.47;101399.31;5050840;28;20037;-85
2022/03/10 08:50:16;;;;;;;32.15;14.15;;;9.10;58.60;;;7.81;52.61;101402.56;5050603;28;20049;-86
2022/03/10 08:52:44;;;;;;;27.83;14.90;;;9.20;58.40;;;7.93;52.44;101395.13;5049009;28;20049;-86
2022/03/10 08:55:12;;;;;;;28.13;15.15;;;9.30;58.40;;;8.02;51.33;101399.69;5047967;28;20525;-86
2022/03/10 08:57:42;;;;;;;24.80;14.50;;;9.40;57.10;;;8.12;51.78;101406.94;5049544;28;20041;-86
2022/03/10 09:00:12;;;;;;;25.80;15.10;;;9.50;57.50;;;8.22;48.96;101405.91;5047503;28;20045;-85
2022/03/10 09:02:41;;;;;;;28.05;14.73;;;9.60;55.80;;;8.34;49.97;101405.72;5052525;28;20664;-85
2022/03/10 09:05:09;;;;;;;31.17;15.90;;;9.70;56.70;;;8.46;49.48;101401.84;5044555;28;20036;-86
2022/03/10 09:07:36;;;;;;;26.85;15.68;;;9.80;55.60;;;8.50;50.80;101405.97;5042866;28;20037;-85
2022/03/10 09:10:05;;;;;;;30.30;16.02;;;9.90;55.90;;;8.54;49.88;101393.81;5051722;28;20072;-86
2022/03/10 09:12:32;;;;;;;32.83;16.05;;;10.00;56.50;;;8.62;48.47;101395.78;5043746;28;20048;-85
2022/03/10 09:15:01;;;;;;;28.10;16.40;;;10.00;55.10;;;8.68;48.37;101389.78;5057676;28;20048;-88
2022/03/10 09:17:29;;;;;;;28.15;15.57;;;10.10;54.50;;;8.77;48.07;101393.41;5067995;28;20084;-86
2022/03/10 09:19:56;;;;;;;37.42;18.27;;;10.10;54.30;;;8.78;47.09;101397.84;5055492;28;20037;-87
2022/03/10 09:22:25;;;;;;;32.03;15.88;;;10.10;53.00;;;8.80;48.47;101393.13;5067354;28;20049;-87
2022/03/10 09:24:53;;;;;;;33.45;18.30;;;10.30;54.20;;;8.94;47.25;101395.31;5050439;28;20041;-86
2022/03/10 09:27:20;;;;;;;35.25;17.83;;;10.30;53.30;;;8.98;46.54;101395.88;5051365;28;20576;-86
2022/03/10 09:29:48;;;;;;;34.45;18.33;;;10.30;52.90;;;9.01;46.75;101395.56;5053109;28;20558;-87
2022/03/10 09:32:17;;;;;;;36.03;18.02;;;10.30;52.20;;;9.00;47.30;101396.56;5055785;28;20044;-86
2022/03/10 09:34:45;;;;;;;30.83;17.02;;;10.40;52.90;;;9.12;47.05;101394.47;5049832;28;20119;-87
2022/03/10 09:37:12;;;;;;;36.92;18.25;;;10.50;52.90;;;9.17;47.03;101390.31;5051065;28;20091;-87
2022/03/10 09:39:40;;;;;;;34.42;18.05;;;10.60;53.30;;;9.20;46.45;101381.00;5048123;28;20048;-86
2022/03/10 09:42:11;;;;;;;36.25;19.65;;;10.60;53.30;;;9.21;46.45;101377.28;5052551;28;20048;-86
2022/03/10 09:44:42;;;;;;;;;;;10.60;52.70;;;9.25;45.74;101380.53;5046537;28;20047;-87
2022/03/10 09:47:10;;;;;;;33.97;18.63;;;10.70;52.80;;;9.27;45.25;101376.69;5041602;28;20003;-87
2022/03/10 09:49:40;;;;;;;33.55;18.67;;;10.60;52.50;;;9.30;44.81;101372.78;5046185;28;20044;-87
2022/03/10 09:52:11;;;;;;;34.03;18.38;;;10.70;51.90;;;9.32;44.63;101377.03;5051066;28;20045;-87
2022/03/10 09:54:38;;;;;;;36.47;18.73;;;10.70;51.50;;;9.36;43.84;101367.56;5048750;28;20091;-87
2022/03/10 09:57:08;;;;;;;38.55;18.77;;;10.70;51.50;;;9.41;43.74;101367.13;5070812;28;20071;-86
2022/03/10 09:59:47;;;;;;;33.17;17.92;;;10.70;51.50;;;9.45;43.66;101367.66;5071539;28;20044;-87
2022/03/10 10:02:14;;;;;;;34.38;19.00;;;10.80;50.90;;;9.48;43.61;101365.50;5045379;28;20047;-87
2022/03/10 10:04:44;;;;;;;35.42;18.85;;;10.80;50.70;;;9.56;42.94;101362.00;5051100;28;20473;-86
2022/03/10 10:07:12;;;;;;;35.78;19.13;;;10.90;50.40;;;9.63;43.52;101357.59;5050292;28;20053;-87
2022/03/10 10:09:42;;;;;;;35.72;18.45;;;11.00;50.10;;;9.66;43.22;101351.03;5051471;28;20033;-87
2022/03/10 10:12:12;;;;;;;42.15;19.77;;;11.00;50.50;;;9.68;42.73;101358.00;5050234;28;20511;-87
2022/03/10 10:14:41;;;;;;;30.08;18.23;;;11.00;49.90;;;9.69;42.35;101351.56;5049513;28;20121;-87
2022/03/10 10:17:08;;;;;;;36.30;18.58;;;11.10;49.80;;;9.73;42.55;101352.94;5051107;28;20057;-87
2022/03/10 10:19:38;;;;;;;33.53;17.75;;;11.00;49.60;;;9.77;42.56;101350.78;5064912;28;20040;-87
2022/03/10 10:22:19;;;;;;;33.83;18.90;;;11.10;49.20;;;9.85;41.70;101352.69;5070211;28;20040;-87